Auburn, ME

6:49 PM EDT on March 27, 2017 (GMT -0400)
Pride Hill | | Change Station

Elev 293 ft 44.08 °N, 70.25 °W | Updated 5 minutes ago

Fog
Fog
32.9 °F
Feels Like 33 °F
N
2.0
Wind Variable Wind from NE
Gusts 5.0 mph

Today
High -- | Low -- °F
--% Chance of Precip.
Yesterday
High -- | Low -- °F
Precip. -- in
Pressure 30.12 in
Visibility 1.8 miles
Clouds Overcast 400 ft
Windchill 33 °F
Dew Point 31 °F
Humidity 94%
Rainfall 0.22 in
Snow Depth Not available.
6:30 AM 7:02 PM
Waning Crescent, 0% visible
METAR KLEW 272156Z AUTO 03007KT 1 3/4SM UP BR OVC004 01/01 A3007 RMK AO2 SLP198 P0000 T00110006 FZRANO
Pressure 30.12 in
Visibility 1.8 miles
Clouds Overcast 400 ft
Windchill 33 °F
Dew Point 31 °F
Humidity 94%
Rainfall 0.22 in
Snow Depth Not available.
6:30 AM 7:02 PM
Waning Crescent, 0% visible
METAR KLEW 272156Z AUTO 03007KT 1 3/4SM UP BR OVC004 01/01 A3007 RMK AO2 SLP198 P0000 T00110006 FZRANO

Get Severe Weather Alerts

Thanks for signing up!

Be on the lookout for a verification email in your inbox.

You'll start receiving the daily forecast at 8 AM.

×

10-Day Weather Forecast

Almanac

Astronomy

Mar. 27, 2017 Rise Set
Actual Time
Civil Twilight
Nautical Twilight
Astronomical Twilight
Moon
Length of Visible Light
Length of Day
Tomorrow will be .
, % of the Moon is Illuminated

Today's Extremes

State Highs State Lows

Community

WunderPhotos

Upload Photos

1,962,540 photos uploaded!

WunderBlog® & News

Nearby

Air Quality

  Air Quality AQ Index Pollutant
Not available.

Snow Depth

Station Depth Elevation

Earthquake Activity

City Distance Mag. Time & Date
Minimum magnitude displayed is 2.5.

Earthquake Activity

City Distance Mag. Time & Date
Minimum magnitude displayed is 2.5.

Coastal Water Temperatures

Place Temperature

Stations

Nearby Weather Stations

Station Location Temp. Windchill Dew Point Humidity Wind Precip. Elev Updated Type
                   

Watches & Warnings

There are currently no watches in effect.